Time;durP1;ratioP1;P1;durP2;ratioP2;P2;SDS_P1;SDS_P2;PMS_P1;PMS_P2;Temp;Humidity;BMP_temperature;BMP_pressure;BME280_temperature;BME280_humidity;BME280_pressure;Samples;Min_cycle;Max_cycle;Signal;HPM_P1;HPM_P2
2022/03/18 00:00:21;;;;;;;18.48;9.33;;;;;;;-0.03;53.27;102382.73;1388723;92;21480;-78
2022/03/18 00:02:49;;;;;;;17.60;9.63;;;;;;;-0.03;53.33;102391.84;1419710;92;22241;-80
2022/03/18 00:05:16;;;;;;;16.67;9.30;;;;;;;0.00;53.36;102388.31;1421150;92;21427;-80
2022/03/18 00:07:47;;;;;;;15.55;8.18;;;;;;;0.01;53.29;102391.32;1420056;92;21442;-80
2022/03/18 00:10:18;;;;;;;17.98;9.80;;;;;;;0.02;53.31;102392.17;1417624;92;21428;-82
2022/03/18 00:12:47;;;;;;;13.35;7.08;;;;;;;0.01;53.12;102393.07;1421771;92;21420;-82
2022/03/18 00:15:15;;;;;;;21.62;11.43;;;;;;;-0.01;53.00;102392.64;1417253;92;21545;-80
2022/03/18 00:17:43;;;;;;;15.10;8.73;;;;;;;-0.04;52.62;102400.52;1415739;92;21376;-81
2022/03/18 00:20:13;;;;;;;19.92;9.15;;;;;;;-0.04;52.69;102400.52;1413435;92;22433;-78
2022/03/18 00:22:42;;;;;;;19.12;9.00;;;;;;;-0.05;52.07;102404.02;1423745;92;21383;-79
2022/03/18 00:25:12;;;;;;;18.87;9.85;;;;;;;-0.02;52.49;102404.41;1418843;92;21508;-79
2022/03/18 00:27:44;;;;;;;15.88;8.33;;;;;;;-0.05;52.22;102402.72;1421141;92;21487;-79
2022/03/18 00:30:13;;;;;;;17.10;9.35;;;;;;;-0.04;52.52;102405.72;1416540;92;21331;-79
2022/03/18 00:32:42;;;;;;;17.65;9.50;;;;;;;-0.06;52.70;102408.82;1420100;92;22340;-79
2022/03/18 00:35:10;;;;;;;23.60;9.85;;;;;;;-0.08;52.37;102413.64;1421937;92;21382;-80
2022/03/18 00:37:38;;;;;;;21.17;9.33;;;;;;;-0.07;52.46;102408.84;1408611;92;21457;-79
2022/03/18 00:40:07;;;;;;;19.57;9.28;;;;;;;-0.08;52.49;102410.59;1406766;92;21451;-79
2022/03/18 00:42:36;;;;;;;16.12;9.88;;;;;;;-0.09;52.35;102415.36;1397535;92;21428;-79
2022/03/18 00:45:04;;;;;;;15.30;8.85;;;;;;;-0.10;52.60;102414.95;1409407;92;21947;-80
2022/03/18 00:53:05;;;;;;;17.90;10.35;;;;;;;-0.15;52.65;102414.19;1398219;93;21487;-81
2022/03/18 00:55:32;;;;;;;19.82;7.87;;;;;;;-0.16;52.86;102409.03;1375549;93;21399;-81
2022/03/18 00:57:59;;;;;;;16.70;8.48;;;;;;;-0.20;52.65;102408.23;1396605;93;21591;-81
2022/03/18 01:00:26;;;;;;;16.25;8.20;;;;;;;-0.22;52.63;102410.00;1396021;93;21436;-80
2022/03/18 01:02:53;;;;;;;14.03;7.50;;;;;;;-0.25;52.52;102409.62;1400803;93;21421;-80
2022/03/18 01:05:20;;;;;;;21.27;8.20;;;;;;;-0.27;52.51;102406.63;1395312;93;21443;-81
2022/03/18 01:07:47;;;;;;;20.35;9.30;;;;;;;-0.30;52.63;102411.89;1401361;93;21392;-79
2022/03/18 01:10:14;;;;;;;20.65;9.33;;;;;;;-0.31;52.75;102409.73;1392478;93;21727;-78
2022/03/18 01:12:41;;;;;;;18.82;8.75;;;;;;;-0.32;52.83;102421.46;1395090;93;21465;-79
2022/03/18 01:15:08;;;;;;;13.75;7.25;;;;;;;-0.34;52.84;102410.25;1376678;93;21458;-78
2022/03/18 01:17:37;;;;;;;14.55;7.55;;;;;;;-0.35;52.76;102415.02;1401974;93;21473;-79
2022/03/18 01:20:06;;;;;;;18.95;9.03;;;;;;;-0.36;52.66;102413.31;1397173;93;22411;-78
2022/03/18 01:22:32;;;;;;;18.55;10.43;;;;;;;-0.34;52.71;102420.66;1397643;93;21480;-78
2022/03/18 01:24:59;;;;;;;15.53;8.53;;;;;;;-0.35;52.72;102414.56;1395720;93;21413;-79
2022/03/18 01:27:26;;;;;;;18.62;8.53;;;;;;;-0.36;52.46;102414.61;1390624;93;21496;-79
2022/03/18 01:29:54;;;;;;;18.70;8.65;;;;;;;-0.41;52.78;102412.09;1393102;93;21528;-79
2022/03/18 01:32:21;;;;;;;25.15;10.75;;;;;;;-0.50;52.41;102413.11;1390375;93;21546;-79
2022/03/18 01:34:48;;;;;;;20.00;9.48;;;;;;;-0.58;52.48;102413.69;1398289;93;21347;-79
2022/03/18 01:37:15;;;;;;;18.92;10.00;;;;;;;-0.64;52.58;102411.20;1400655;93;21404;-79
2022/03/18 01:39:42;;;;;;;22.37;10.08;;;;;;;-0.65;53.15;102418.60;1392452;93;21406;-78
2022/03/18 01:42:09;;;;;;;20.48;9.73;;;;;;;-0.67;53.14;102417.77;1395208;93;21406;-79
2022/03/18 01:44:41;;;;;;;21.75;9.15;;;;;;;-0.68;53.10;102418.66;1396923;93;21598;-80
2022/03/18 01:47:10;;;;;;;16.82;8.45;;;;;;;-0.73;53.13;102421.33;1392540;93;21377;-78
2022/03/18 01:49:39;;;;;;;15.25;8.25;;;;;;;-0.77;52.99;102422.73;1391065;93;21406;-78
2022/03/18 01:52:09;;;;;;;23.67;9.95;;;;;;;-0.80;52.97;102413.68;1399194;92;21546;-78
2022/03/18 01:54:49;;;;;;;16.70;8.35;;;;;;;-0.83;53.10;102417.19;1393377;93;21428;-79
2022/03/18 01:57:28;;;;;;;13.72;7.83;;;;;;;-0.85;53.40;102415.05;1399979;93;21435;-81
2022/03/18 01:59:55;;;;;;;15.95;7.83;;;;;;;-0.90;53.59;102420.75;1401704;93;21406;-81
2022/03/18 02:02:23;;;;;;;18.17;8.80;;;;;;;-0.96;54.02;102420.41;1396041;93;21347;-79
2022/03/18 02:04:50;;;;;;;17.37;8.60;;;;;;;-0.95;53.67;102423.86;1398270;93;21339;-80
2022/03/18 02:07:18;;;;;;;17.17;7.78;;;;;;;-0.94;53.68;102434.25;1394621;93;22241;-80
2022/03/18 02:09:45;;;;;;;19.73;9.15;;;;;;;-0.99;53.39;102442.55;1405189;93;21464;-80
2022/03/18 02:12:12;;;;;;;16.75;8.38;;;;;;;-0.98;53.67;102452.09;1398669;93;21434;-80
2022/03/18 02:14:46;;;;;;;13.70;6.70;;;;;;;-0.97;52.94;102457.70;1397863;93;21405;-80
2022/03/18 02:17:16;;;;;;;15.88;7.70;;;;;;;-1.10;53.22;102467.85;1407480;93;21317;-81
2022/03/18 02:19:47;;;;;;;16.87;8.10;;;;;;;-1.21;53.58;102469.75;1374937;95;21369;-80
2022/03/18 02:22:20;;;;;;;15.98;8.33;;;;;;;-1.29;53.46;102476.82;1378360;95;22343;-81
2022/03/18 02:24:51;;;;;;;17.77;9.15;;;;;;;-1.37;53.67;102481.66;1375137;95;21540;-81
2022/03/18 02:27:19;;;;;;;17.10;7.72;;;;;;;-1.40;54.61;102485.61;1376511;95;21492;-81
2022/03/18 02:29:47;;;;;;;13.80;8.08;;;;;;;-1.37;54.18;102480.36;1380592;95;22370;-81
2022/03/18 02:32:14;;;;;;;16.00;8.08;;;;;;;-1.33;54.09;102479.02;1376827;95;21425;-81
2022/03/18 02:34:43;;;;;;;22.05;8.48;;;;;;;-1.34;54.96;102471.67;1377571;95;21399;-81
2022/03/18 02:37:11;;;;;;;19.00;7.90;;;;;;;-1.36;55.59;102475.58;1386182;95;21432;-80
2022/03/18 02:39:39;;;;;;;16.45;8.35;;;;;;;-1.44;55.38;102482.64;1372971;95;21363;-79
2022/03/18 02:42:06;;;;;;;18.65;9.83;;;;;;;-1.47;55.33;102488.30;1376102;95;21351;-79
2022/03/18 02:44:34;;;;;;;13.75;8.05;;;;;;;-1.52;56.31;102487.07;1374451;95;22368;-79
2022/03/18 02:47:01;;;;;;;20.77;7.58;;;;;;;-1.58;57.06;102487.16;1355142;95;21512;-79
2022/03/18 02:49:28;;;;;;;21.52;8.90;;;;;;;-1.60;56.81;102495.40;1339349;96;21423;-79
2022/03/18 02:51:56;;;;;;;19.60;8.90;;;;;;;-1.62;56.76;102494.55;1394626;93;21546;-79
2022/03/18 02:54:23;;;;;;;14.73;6.75;;;;;;;-1.68;56.10;102502.41;1386560;94;22444;-79
2022/03/18 02:56:50;;;;;;;17.20;7.30;;;;;;;-1.79;55.71;102502.53;1395790;93;21864;-79
2022/03/18 02:59:17;;;;;;;15.85;7.78;;;;;;;-1.85;55.86;102496.97;1397268;94;22509;-79
2022/03/18 03:01:44;;;;;;;16.93;8.70;;;;;;;-1.88;56.17;102495.71;1376920;93;23215;-79
2022/03/18 03:04:13;;;;;;;20.65;8.33;;;;;;;-1.96;56.83;102502.72;1414253;92;21517;-79
2022/03/18 03:09:26;;;;;;;14.83;7.72;;;;;;;-2.10;57.86;102501.59;1415918;92;21407;-79
2022/03/18 03:11:53;;;;;;;15.13;7.78;;;;;;;-2.17;57.50;102508.14;1421671;92;21384;-80
2022/03/18 03:14:20;;;;;;;19.02;8.25;;;;;;;-2.21;57.62;102502.58;1421656;92;21399;-80
2022/03/18 03:16:46;;;;;;;18.20;7.70;;;;;;;-2.20;57.39;102509.48;1416264;92;22263;-79
2022/03/18 03:19:14;;;;;;;21.48;8.20;;;;;;;-2.20;57.37;102508.17;1420615;92;21509;-79
2022/03/18 03:21:41;;;;;;;21.85;9.00;;;;;;;-2.24;57.44;102511.66;1416846;92;21390;-79
2022/03/18 03:24:08;;;;;;;19.57;8.98;;;;;;;-2.25;57.70;102513.84;1419750;92;22271;-79
2022/03/18 03:26:36;;;;;;;18.42;8.73;;;;;;;-2.31;57.77;102519.50;1411735;92;21376;-80
2022/03/18 03:29:03;;;;;;;15.30;8.15;;;;;;;-2.28;57.52;102519.47;1420495;91;23283;-80
2022/03/18 03:31:32;;;;;;;15.32;8.68;;;;;;;-2.24;57.60;102517.73;1413571;92;21998;-80
2022/03/18 03:34:00;;;;;;;17.90;7.70;;;;;;;-2.18;57.38;102514.22;1411933;92;21458;-81
2022/03/18 03:36:27;;;;;;;26.40;9.43;;;;;;;-2.15;57.59;102516.78;1398996;92;22484;-80
2022/03/18 03:38:54;;;;;;;23.15;10.40;;;;;;;-2.12;57.82;102512.41;1411776;92;21929;-79
2022/03/18 03:41:23;;;;;;;22.20;11.75;;;;;;;-2.07;57.57;102520.17;1423144;92;23312;-79
2022/03/18 03:43:51;;;;;;;26.68;10.80;;;;;;;-2.05;58.09;102527.47;1419674;92;21495;-79
2022/03/18 03:46:18;;;;;;;27.35;12.20;;;;;;;-2.06;57.68;102529.22;1416525;92;21524;-79
2022/03/18 03:48:45;;;;;;;35.92;13.43;;;;;;;-2.02;57.45;102530.03;1398377;92;22472;-79
2022/03/18 03:51:12;;;;;;;31.37;13.28;;;;;;;-2.00;57.28;102530.89;1406960;92;21487;-81
2022/03/18 03:53:39;;;;;;;27.70;13.03;;;;;;;-2.00;57.43;102536.52;1402989;92;21339;-81
2022/03/18 03:56:06;;;;;;;29.23;13.45;;;;;;;-2.03;56.95;102549.09;1412912;92;21406;-81
2022/03/18 03:58:35;;;;;;;23.65;11.70;;;;;;;-2.08;57.10;102547.82;1415172;92;23379;-82
2022/03/18 04:01:02;;;;;;;23.85;11.50;;;;;;;-2.11;56.95;102540.52;1415128;92;21509;-81
2022/03/18 04:03:29;;;;;;;18.15;8.68;;;;;;;-2.14;57.10;102543.14;1397919;92;21539;-81
2022/03/18 04:05:56;;;;;;;19.73;8.88;;;;;;;-2.16;56.78;102556.55;1399804;92;21443;-81
2022/03/18 04:08:23;;;;;;;17.00;8.43;;;;;;;-2.17;56.87;102557.44;1408431;92;21406;-79
2022/03/18 04:10:50;;;;;;;11.93;7.28;;;;;;;-2.18;57.04;102563.52;1394616;92;21487;-79
2022/03/18 04:13:17;;;;;;;16.48;8.10;;;;;;;-2.19;57.13;102563.92;1410923;92;21591;-79
2022/03/18 04:15:44;;;;;;;16.30;7.33;;;;;;;-2.19;57.19;102565.22;1412656;92;21413;-79
2022/03/18 04:18:11;;;;;;;16.70;8.63;;;;;;;-2.17;57.75;102565.22;1415175;91;21399;-79
2022/03/18 04:20:38;;;;;;;21.65;11.35;;;;;;;-2.19;58.36;102566.96;1410433;91;21473;-79
2022/03/18 04:23:05;;;;;;;25.12;11.08;;;;;;;-2.23;58.18;102573.06;1414617;92;21473;-83
2022/03/18 04:25:32;;;;;;;24.57;10.93;;;;;;;-2.28;57.62;102571.35;1410507;93;21852;-83
2022/03/18 04:27:59;;;;;;;28.20;13.80;;;;;;;-2.30;57.66;102574.41;1413022;91;22401;-82
2022/03/18 04:30:26;;;;;;;24.37;12.15;;;;;;;-2.30;57.08;102574.41;1405101;92;21443;-82
2022/03/18 04:32:53;;;;;;;20.85;9.08;;;;;;;-2.33;57.21;102578.33;1417720;91;21472;-82
2022/03/18 04:35:21;;;;;;;15.65;8.10;;;;;;;-2.34;57.17;102574.00;1386262;93;21550;-82
2022/03/18 04:37:48;;;;;;;20.37;9.55;;;;;;;-2.33;57.13;102579.63;1411781;93;21533;-82
2022/03/18 04:40:16;;;;;;;15.75;7.75;;;;;;;-2.34;57.55;102575.73;1413000;91;21435;-81
2022/03/18 04:42:44;;;;;;;15.40;7.70;;;;;;;-2.34;57.38;102578.33;1414431;91;21435;-82
2022/03/18 04:45:13;;;;;;;18.10;8.68;;;;;;;-2.33;57.63;102579.63;1411287;92;22360;-81
2022/03/18 04:47:40;;;;;;;24.18;9.13;;;;;;;-2.31;58.02;102585.64;1410075;91;22412;-82
2022/03/18 04:50:09;;;;;;;17.20;8.30;;;;;;;-2.32;57.82;102582.64;1414017;91;21435;-82
2022/03/18 04:52:37;;;;;;;21.90;10.48;;;;;;;-2.32;58.24;102589.13;1412510;92;21443;-82
2022/03/18 04:55:06;;;;;;;20.60;9.40;;;;;;;-2.32;58.02;102591.72;1412761;92;21547;-82
2022/03/18 04:57:33;;;;;;;16.50;7.72;;;;;;;-2.30;57.80;102592.57;1408749;92;21332;-83
2022/03/18 05:00:00;;;;;;;15.40;7.08;;;;;;;-2.25;58.03;102593.81;1409782;92;22553;-81
2022/03/18 05:02:28;;;;;;;14.83;7.15;;;;;;;-2.22;58.09;102597.67;1412474;92;21429;-82
2022/03/18 05:04:55;;;;;;;12.53;6.55;;;;;;;-2.17;58.11;102597.66;1415384;92;21465;-82
2022/03/18 05:07:24;;;;;;;15.45;7.67;;;;;;;-2.12;57.55;102604.97;1407924;92;21547;-81
2022/03/18 05:09:50;;;;;;;15.23;7.53;;;;;;;-2.08;57.52;102604.05;1406954;92;21436;-81
2022/03/18 05:12:18;;;;;;;15.32;7.40;;;;;;;-2.01;57.09;102607.03;1414498;92;21436;-82
2022/03/18 05:14:44;;;;;;;14.55;6.33;;;;;;;-1.95;56.93;102610.87;1405007;92;21490;-82
2022/03/18 05:17:11;;;;;;;13.22;5.75;;;;;;;-1.86;56.84;102612.52;1406608;92;22390;-82
2022/03/18 05:19:39;;;;;;;16.52;7.17;;;;;;;-1.74;57.01;102620.62;1404829;92;21317;-80
2022/03/18 05:22:07;;;;;;;17.65;7.20;;;;;;;-1.66;56.60;102618.81;1405513;92;22358;-80
2022/03/18 05:24:36;;;;;;;18.48;6.87;;;;;;;-1.56;56.26;102623.02;1415314;92;21443;-82
2022/03/18 05:27:04;;;;;;;13.88;6.95;;;;;;;-1.48;56.03;102622.50;1417673;92;22263;-81
2022/03/18 05:29:32;;;;;;;12.35;6.80;;;;;;;-1.37;55.91;102622.39;1396682;92;22316;-81
2022/03/18 05:32:01;;;;;;;17.42;6.53;;;;;;;-1.28;55.60;102626.17;1415234;92;21458;-81
2022/03/18 05:34:29;;;;;;;14.98;7.03;;;;;;;-1.21;55.40;102625.65;1406151;92;21463;-80
2022/03/18 05:36:56;;;;;;;14.75;7.50;;;;;;;-1.13;55.06;102631.62;1408629;92;21488;-80
2022/03/18 05:39:23;;;;;;;20.95;10.58;;;;;;;-1.09;54.90;102630.72;1407431;92;21562;-80
2022/03/18 05:41:50;;;;;;;23.32;9.03;;;;;;;-1.00;54.92;102637.09;1417201;92;21406;-80
2022/03/18 05:44:18;;;;;;;18.05;9.45;;;;;;;-0.91;54.51;102641.32;1412019;92;21451;-81
2022/03/18 05:46:45;;;;;;;13.55;7.70;;;;;;;-0.81;54.37;102634.25;1406429;92;21539;-81
2022/03/18 05:49:12;;;;;;;12.30;6.78;;;;;;;-0.73;54.24;102637.61;1408466;92;21421;-80
2022/03/18 05:51:40;;;;;;;12.28;6.80;;;;;;;-0.62;53.41;102652.63;1407438;92;21398;-84
2022/03/18 05:54:07;;;;;;;13.43;6.67;;;;;;;-0.53;53.26;102643.38;1406944;92;21458;-83
2022/03/18 05:56:54;;;;;;;11.28;6.08;;;;;;;-0.44;53.17;102654.55;1409101;92;22389;-83
2022/03/18 05:59:27;;;;;;;14.75;6.15;;;;;;;-0.33;53.24;102651.34;1415645;92;22397;-83
2022/03/18 06:01:58;;;;;;;12.07;7.22;;;;;;;-0.26;52.65;102657.74;1375417;94;21464;-82
2022/03/18 06:04:26;;;;;;;12.73;6.45;;;;;;;-0.12;52.73;102660.10;1375460;94;21332;-83
2022/03/18 06:06:53;;;;;;;12.53;7.15;;;;;;;-0.01;52.18;102658.64;1404591;92;22968;-82
2022/03/18 06:12:07;;;;;;;13.68;6.30;;;;;;;0.11;51.11;102658.42;1376838;95;21607;-83
2022/03/18 06:14:35;;;;;;;14.00;5.37;;;;;;;0.26;51.30;102669.05;1395369;94;21357;-82
2022/03/18 06:17:05;;;;;;;10.48;5.95;;;;;;;0.38;50.81;102667.52;1392498;93;21423;-82
2022/03/18 06:19:33;;;;;;;10.72;6.15;;;;;;;0.48;50.55;102676.02;1364654;95;21400;-81
2022/03/18 06:22:01;;;;;;;10.95;5.90;;;;;;;0.60;50.38;102677.09;1399094;93;21466;-80
2022/03/18 06:24:29;;;;;;;10.48;5.58;;;;;;;0.67;49.28;102677.86;1362269;95;22369;-81
2022/03/18 06:26:57;;;;;;;12.90;6.20;;;;;;;0.75;48.17;102686.81;1400048;93;21430;-82
2022/03/18 06:29:24;;;;;;;11.73;6.25;;;;;;;0.84;48.61;102686.21;1412286;92;21451;-78
2022/03/18 06:31:51;;;;;;;12.25;5.75;;;;;;;0.96;49.67;102695.98;1409315;92;21540;-77
2022/03/18 06:34:22;;;;;;;9.45;5.45;;;;;;;1.00;47.86;102696.33;1412237;92;21473;-80
2022/03/18 06:36:51;;;;;;;13.35;6.25;;;;;;;1.11;48.08;102696.52;1415427;92;22271;-84
2022/03/18 06:39:36;;;;;;;;;;;;;;;;;;;;;
2022/03/18 06:41:51;;;;;;;11.18;6.83;;;;;;;1.23;47.48;102701.93;1398237;92;21583;-84
2022/03/18 06:44:19;;;;;;;11.25;5.97;;;;;;;1.37;47.85;102702.09;1450387;92;21281;-84
2022/03/18 06:46:49;;;;;;;11.80;6.45;;;;;;;1.43;47.14;102708.48;1337717;92;22643;-84
2022/03/18 06:49:16;;;;;;;11.70;6.60;;;;;;;1.61;47.20;102710.67;1374010;92;21398;-86
2022/03/18 06:51:43;;;;;;;14.20;5.90;;;;;;;1.71;47.28;102705.68;1412427;92;22993;-85
2022/03/18 06:54:17;;;;;;;15.70;7.67;;;;;;;1.73;46.56;102711.73;1393895;91;21752;-85
2022/03/18 06:56:44;;;;;;;16.77;6.87;;;;;;;1.84;47.15;102714.53;1391249;93;21605;-84
2022/03/18 06:59:11;;;;;;;13.07;5.23;;;;;;;1.93;47.58;102720.41;1410322;92;21786;-84
2022/03/18 07:01:38;;;;;;;12.43;6.23;;;;;;;2.01;46.69;102729.35;1409946;92;21676;-85
2022/03/18 07:04:05;;;;;;;12.57;6.90;;;;;;;2.15;46.82;102731.64;1378300;94;21649;-85
2022/03/18 07:06:32;;;;;;;12.63;5.87;;;;;;;2.31;46.80;102726.92;1398777;93;21630;-84
2022/03/18 07:08:59;;;;;;;11.00;6.13;;;;;;;2.51;45.77;102716.81;1410623;92;21721;-85
2022/03/18 07:11:26;;;;;;;10.43;6.20;;;;;;;2.57;44.97;102723.19;1390361;94;21610;-85
2022/03/18 07:13:53;;;;;;;13.23;7.10;;;;;;;2.68;45.56;102725.52;1397800;93;21737;-83
2022/03/18 07:19:05;;;;;;;13.53;7.20;;;;;;;3.05;44.95;102731.92;1409384;92;21802;-84
2022/03/18 07:21:34;;;;;;;14.70;7.03;;;;;;;3.26;45.08;102738.30;1411715;92;21638;-85
2022/03/18 07:24:01;;;;;;;15.17;6.23;;;;;;;3.40;44.38;102733.98;1413158;92;21632;-84
2022/03/18 07:26:28;;;;;;;13.43;7.83;;;;;;;3.39;43.41;102733.55;1410168;92;21686;-84
2022/03/18 07:28:56;;;;;;;14.43;6.83;;;;;;;3.50;43.95;102745.03;1407580;92;22423;-83
2022/03/18 07:31:23;;;;;;;16.00;7.40;;;;;;;3.54;44.31;102740.98;1403600;92;21716;-84
2022/03/18 07:33:53;;;;;;;12.33;7.03;;;;;;;3.64;44.23;102743.31;1406320;92;22182;-85
2022/03/18 07:36:20;;;;;;;13.30;7.13;;;;;;;3.81;44.81;102746.27;1400499;92;23138;-85
2022/03/18 07:38:47;;;;;;;18.03;8.63;;;;;;;3.95;44.30;102744.08;1409002;92;21817;-85
2022/03/18 07:41:13;;;;;;;15.53;7.30;;;;;;;4.28;43.64;102746.52;1409925;92;21808;-85
2022/03/18 07:43:40;;;;;;;11.83;6.87;;;;;;;4.44;44.36;102749.50;1409422;92;22864;-84
2022/03/18 07:46:07;;;;;;;10.20;6.73;;;;;;;4.44;44.36;102749.50;1409755;92;21927;-85
2022/03/18 07:48:36;;;;;;;16.37;8.50;;;;;;;4.73;43.16;102746.73;1409186;92;21924;-85
2022/03/18 07:51:02;;;;;;;14.63;7.97;;;;;;;4.73;43.16;102746.73;1409930;92;23182;-85
2022/03/18 07:53:29;;;;;;;11.47;7.33;;;;;;;4.95;44.06;102751.25;1409450;92;22241;-82
2022/03/18 07:55:56;;;;;;;15.83;7.90;;;;;;;4.96;42.85;102752.95;1411959;92;22034;-83
2022/03/18 07:58:23;;;;;;;15.97;9.47;;;;;;;5.04;42.87;102763.19;1402853;92;22191;-83
2022/03/18 08:00:51;;;;;;;18.87;7.57;;;;;;;5.20;42.85;102760.39;1411865;92;22102;-83
2022/03/18 08:03:19;;;;;;;14.80;8.43;;;;;;;5.27;42.77;102762.36;1415264;92;22110;-87
2022/03/18 08:05:47;;;;;;;15.87;8.30;;;;;;;5.43;42.92;102763.02;1418527;92;23012;-89
2022/03/18 08:08:16;;;;;;;19.83;10.23;;;;;;;5.71;43.74;102761.98;1416359;92;21399;-90
2022/03/18 08:10:44;;;;;;;19.03;9.10;;;;;;;5.86;43.38;102772.35;1408319;92;21443;-90
2022/03/18 08:13:10;;;;;;;20.27;9.10;;;;;;;5.96;42.84;102760.61;1415230;92;21494;-90
2022/03/18 08:15:39;;;;;;;21.47;9.90;;;;;;;6.11;42.67;102764.39;1412102;92;21807;-89
2022/03/18 08:18:15;;;;;;;19.77;11.07;;;;;;;6.23;42.58;102769.15;1402639;92;22293;-89
2022/03/18 08:20:42;;;;;;;18.77;10.23;;;;;;;6.26;42.29;102774.28;1376353;92;21637;-90
2022/03/18 08:23:26;;;;;;;;;;;;;;;;;;;;;
2022/03/18 08:25:41;;;;;;;15.72;10.05;;;;;;;6.45;43.46;102777.03;1409601;92;21746;-89
2022/03/18 08:28:08;;;;;;;18.17;9.63;;;;;;;6.67;43.36;102775.65;1403506;92;21436;-91
2022/03/18 08:30:36;;;;;;;19.67;12.73;;;;;;;6.80;42.88;102775.15;1405843;92;21443;-89
2022/03/18 08:33:03;;;;;;;151.17;68.50;;;;;;;6.94;43.22;102774.09;1395381;92;21420;-89
2022/03/18 08:35:30;;;;;;;26.70;14.93;;;;;;;6.82;42.87;102775.48;1417184;92;21723;-90
2022/03/18 08:37:57;;;;;;;37.40;19.53;;;;;;;6.87;43.80;102773.95;1394584;92;21362;-89
2022/03/18 08:40:32;;;;;;;17.87;10.23;;;;;;;6.89;44.30;102785.28;1411826;92;21625;-89
2022/03/18 08:43:01;;;;;;;19.57;10.17;;;;;;;6.93;43.46;102776.31;1413863;92;21458;-88
2022/03/18 08:45:29;;;;;;;126.97;63.10;;;;;;;6.96;41.37;102782.76;1403752;92;21421;-89
2022/03/18 08:47:56;;;;;;;24.33;13.00;;;;;;;7.04;41.97;102785.06;1406772;92;21466;-88
2022/03/18 08:50:24;;;;;;;21.83;12.27;;;;;;;7.13;42.45;102785.97;1416077;92;21361;-88
2022/03/18 08:52:54;;;;;;;18.47;11.63;;;;;;;7.20;42.80;102790.91;1395870;92;21413;-88
2022/03/18 08:55:21;;;;;;;24.55;13.78;;;;;;;7.29;42.70;102788.80;1445618;92;21435;-91
2022/03/18 08:57:49;;;;;;;20.00;10.27;;;;;;;7.28;42.31;102785.31;1415633;92;21418;-90
2022/03/18 09:00:18;;;;;;;29.67;15.40;;;;;;;7.41;41.95;102786.92;1390821;92;21383;-90
2022/03/18 09:02:48;;;;;;;21.83;11.57;;;;;;;7.57;42.82;102793.22;1403364;92;21332;-90
2022/03/18 09:05:15;;;;;;;19.10;12.67;;;;;;;7.62;41.87;102791.23;1413990;92;21428;-89
2022/03/18 09:07:42;;;;;;;26.53;12.53;;;;;;;7.68;42.14;102799.28;1412484;92;21561;-89
2022/03/18 09:10:12;;;;;;;24.17;14.93;;;;;;;7.83;42.64;102805.19;1414464;92;21442;-90
2022/03/18 09:12:55;;;;;;;18.73;12.10;;;;;;;7.92;42.30;102803.90;1398639;92;22374;-90
2022/03/18 09:15:20;;;;;;;22.07;12.87;;;;;;;8.16;41.75;102806.29;1413023;92;22461;-90
2022/03/18 09:17:47;;;;;;;22.40;12.17;;;;;;;8.46;42.49;102800.88;1417511;92;21472;-91
2022/03/18 09:20:14;;;;;;;21.80;13.03;;;;;;;8.75;42.51;102803.84;1414541;92;21426;-90
2022/03/18 09:22:41;;;;;;;22.87;13.63;;;;;;;9.00;42.04;102796.81;1413933;92;21442;-89
2022/03/18 09:25:09;;;;;;;21.13;13.33;;;;;;;9.21;41.31;102803.64;1412936;92;21378;-90
2022/03/18 09:27:37;;;;;;;20.17;13.63;;;;;;;9.32;40.77;102800.44;1413973;92;21435;-90
2022/03/18 09:30:05;;;;;;;17.87;11.80;;;;;;;9.42;41.46;102801.64;1407552;92;21524;-89
2022/03/18 09:32:32;;;;;;;19.43;13.40;;;;;;;9.45;40.43;102801.94;1407995;92;21494;-90
2022/03/18 09:34:59;;;;;;;24.13;12.93;;;;;;;9.34;39.96;102801.19;1419791;92;22389;-91
2022/03/18 09:37:26;;;;;;;18.63;12.90;;;;;;;9.43;40.75;102801.16;1424324;92;21510;-91
2022/03/18 09:39:53;;;;;;;21.67;13.93;;;;;;;9.49;41.02;102800.39;1409172;92;22257;-90
2022/03/18 09:42:20;;;;;;;28.07;13.40;;;;;;;9.55;40.30;102798.32;1407386;92;21437;-88
2022/03/18 09:44:48;;;;;;;24.50;13.63;;;;;;;9.60;40.14;102798.94;1419286;92;21524;-90
2022/03/18 09:47:15;;;;;;;24.93;15.97;;;;;;;9.65;40.63;102801.71;1411014;92;21536;-89
2022/03/18 09:49:46;;;;;;;22.47;14.50;;;;;;;9.79;40.75;102800.96;1414331;92;21428;-89
2022/03/18 09:52:15;;;;;;;36.90;22.37;;;;;;;10.00;40.64;102802.03;1396083;92;21457;-90
2022/03/18 09:54:42;;;;;;;20.63;13.60;;;;;;;9.83;40.12;102797.67;1420841;92;21584;-90
2022/03/18 09:57:11;;;;;;;34.70;22.13;;;;;;;9.90;39.93;102797.26;1417633;92;21391;-90
2022/03/18 09:59:39;;;;;;;24.13;16.00;;;;;;;9.99;40.76;102805.15;1420914;92;21466;-90
2022/03/18 10:02:26;;;;;;;22.50;15.77;;;;;;;10.01;40.94;102807.69;1425089;92;21332;-89
2022/03/18 10:05:03;;;;;;;23.33;15.77;;;;;;;10.18;40.56;102808.92;1378037;92;22321;-90
2022/03/18 10:07:30;;;;;;;24.97;14.70;;;;;;;10.39;40.62;102805.09;1416001;92;21442;-90
2022/03/18 10:10:15;;;;;;;20.60;14.83;;;;;;;10.42;40.05;102802.74;1414042;92;21413;-90
2022/03/18 10:12:47;;;;;;;20.80;15.47;;;;;;;10.32;40.01;102811.66;1409880;92;22286;-90
2022/03/18 10:15:18;;;;;;;25.80;17.57;;;;;;;10.51;40.51;102807.98;1414825;92;21369;-90
2022/03/18 10:17:50;;;;;;;26.05;15.53;;;;;;;10.70;40.63;102804.61;1420471;92;21429;-89
2022/03/18 10:20:34;;;;;;;25.90;16.63;;;;;;;10.81;40.12;102811.45;1413477;92;21420;-90
2022/03/18 10:23:19;;;;;;;35.30;20.33;;;;;;;10.90;40.47;102815.83;1392559;92;21390;-90
2022/03/18 10:25:58;;;;;;;26.70;18.40;;;;;;;10.88;40.40;102813.77;1421177;92;21412;-90
2022/03/18 10:28:41;;;;;;;25.50;17.47;;;;;;;11.03;40.62;102800.91;1419796;92;21442;-90
2022/03/18 10:31:20;;;;;;;23.37;16.33;;;;;;;11.09;39.70;102799.20;1415515;92;21405;-90
2022/03/18 10:37:11;;;;;;;25.53;15.70;;;;;;;10.90;38.84;102794.16;1417849;92;21629;-90
2022/03/18 10:39:45;;;;;;;26.47;16.93;;;;;;;11.17;39.52;102796.95;1413458;92;22294;-90
2022/03/18 10:42:16;;;;;;;22.00;14.20;;;;;;;11.35;39.65;102798.94;1415896;92;22395;-90
2022/03/18 10:44:53;;;;;;;29.57;16.60;;;;;;;11.43;38.94;102803.30;1416181;92;21494;-90
2022/03/18 10:47:34;;;;;;;26.00;17.13;;;;;;;11.75;39.37;102798.61;1419079;92;21309;-90
2022/03/18 10:50:13;;;;;;;23.05;17.12;;;;;;;12.01;38.51;102790.82;1418655;92;21421;-91
2022/03/18 10:52:52;;;;;;;28.33;16.73;;;;;;;12.08;37.40;102789.94;1419614;92;23154;-90
2022/03/18 10:55:26;;;;;;;24.27;14.43;;;;;;;11.81;36.93;102784.59;1417140;92;21398;-90
2022/03/18 10:58:01;;;;;;;24.60;16.70;;;;;;;12.04;37.16;102789.77;1395183;94;21451;-89
2022/03/18 11:00:32;;;;;;;24.30;15.47;;;;;;;12.25;37.23;102788.84;1413702;92;21480;-89
2022/03/18 11:03:02;;;;;;;24.20;15.90;;;;;;;12.38;36.89;102781.29;1396450;93;21457;-90
2022/03/18 11:05:39;;;;;;;21.57;15.63;;;;;;;12.15;35.71;102781.48;1402247;92;21539;-90
2022/03/18 11:08:22;;;;;;;26.77;14.97;;;;;;;11.95;35.91;102785.91;1417102;92;21398;-90
2022/03/18 11:11:07;;;;;;;25.03;16.43;;;;;;;11.98;36.51;102788.84;1418096;92;21420;-88
2022/03/18 11:14:03;;;;;;;23.00;16.53;;;;;;;11.96;36.30;102785.80;1423188;92;21457;-87
2022/03/18 11:16:40;;;;;;;22.40;14.87;;;;;;;11.96;36.75;102784.95;1399196;93;21553;-87
2022/03/18 11:19:10;;;;;;;22.00;16.87;;;;;;;12.29;36.16;102773.09;1396697;93;21435;-88
2022/03/18 11:21:40;;;;;;;25.10;16.40;;;;;;;12.52;36.54;102775.55;1397670;93;21547;-87
2022/03/18 11:24:11;;;;;;;22.10;15.50;;;;;;;12.67;34.91;102770.52;1397554;93;21480;-88
2022/03/18 11:26:46;;;;;;;23.27;15.57;;;;;;;12.71;33.48;102773.80;1397010;93;21496;-88
2022/03/18 11:29:26;;;;;;;24.03;14.97;;;;;;;12.87;35.03;102771.81;1404233;93;21481;-89
2022/03/18 11:32:15;;;;;;;27.93;15.55;;;;;;;12.98;33.99;102770.59;1405279;92;21398;-90
2022/03/18 11:34:58;;;;;;;28.83;17.03;;;;;;;13.20;34.67;102773.08;1411238;92;21553;-90
2022/03/18 11:37:26;;;;;;;23.70;16.87;;;;;;;13.00;33.39;102768.66;1398513;92;21413;-90
2022/03/18 11:40:23;;;;;;;22.20;15.37;;;;;;;12.71;34.66;102777.79;1415607;92;21613;-84
2022/03/18 11:42:50;;;;;;;22.07;16.40;;;;;;;12.39;34.49;102766.20;1412444;91;22301;-84
2022/03/18 11:45:42;;;;;;;25.33;17.67;;;;;;;12.37;35.62;102765.45;1408895;92;21876;-86